Flight Track Log - Related Links

Times and Time Zones

All times are in EDT time to prevent confusion due to time zone crossing. See the SWA1761 flight status page for this flight to view local times or setup timezone preferences in your user account.

Time Position Orientation Groundspeed Altitude Reporting Facility
EDT Latitude Longitude Course Direction KTS MPH feet Rate Location/Type
Sat 01:55:01 PM 38.6500 -121.5667 109° East 197 227 2,600  Level Northern Cal TRACON
Sat 01:56:01 PM 38.6167 -121.5000 123° Southeast 252 290 5,000 2,650 Climbing Northern Cal TRACON
Sat 01:57:01 PM 38.5667 -121.4167 127° Southeast 279 321 7,900 3,227 Climbing Northern Cal TRACON
Sat 01:58:13 PM 38.5275 -121.3194 117° Southeast 293 337 12,100 3,383 Climbing Oakland Center
Sat 01:59:14 PM 38.4817 -121.2206 121° Southeast 317 365 15,400 3,317 Climbing Oakland Center
Sat 02:00:00 PM 38.3059 -120.9777 109° East  Level FlightAware Approximate
Sat 02:00:16 PM 38.4294 -121.1075 120° Southeast 335 386 18,900  Level Oakland Center
Sat 02:01:17 PM 38.3783 -120.9978 121° Southeast 355 409 21,900 2,098 Climbing Oakland Center
Sat 02:02:19 PM 38.3219 -120.8797 121° Southeast 388 447 23,200 1,951 Climbing Oakland Center
Sat 02:03:20 PM 38.2486 -120.7233 121° Southeast 424 488 25,900 2,390 Climbing Oakland Center
Sat 02:04:22 PM 38.1608 -120.6206 137° Southeast 432 497 28,100 1,951 Climbing Oakland Center
Sat 02:05:23 PM 38.0472 -120.5667 160° South 432 497 29,900 1,756 Climbing Oakland Center
Sat 02:06:25 PM 37.9303 -120.5119 160° South 444 511 31,700 1,951 Climbing Oakland Center
Sat 02:07:26 PM 37.8142 -120.4561 159° South 444 511 33,900 1,902 Climbing Oakland Center
Sat 02:08:28 PM 37.6997 -120.4033 160° South 442 509 35,600 1,610 Climbing Oakland Center
Sat 02:09:29 PM 37.5864 -120.3486 159° South 437 503 37,200 1,463 Climbing Oakland Center
Sat 02:10:31 PM 37.4714 -120.2975 161° South 437 503 38,600 878 Climbing Oakland Center
Sat 02:11:32 PM 37.3586 -120.2422 159° South 437 503 39,000 195 Climbing Oakland Center
Sat 02:12:34 PM 37.2217 -120.1789 160° South 436 502 39,000  Level Oakland Center
Sat 02:13:35 PM 37.1072 -120.1286 161° South 436 502 39,000  Level Oakland Center
Sat 02:14:37 PM 37.0036 -120.0786 159° South 436 502 39,000  Level Oakland Center
Sat 02:15:38 PM 36.8914 -120.0250 159° South 435 501 39,000  Level Oakland Center
Sat 02:16:40 PM 36.7781 -119.9767 161° South 434 499 39,000  Level Oakland Center
Sat 02:17:41 PM 36.6428 -119.9150 160° South 432 497 39,000  Level Oakland Center
Sat 02:18:43 PM 36.5286 -119.8633 160° South 432 497 39,000  Level Oakland Center
Sat 02:19:45 PM 36.4161 -119.8117 160° South 432 497 39,000  Level Oakland Center
Sat 02:20:46 PM 36.3022 -119.7603 160° South 433 498 39,000  Level Oakland Center
Sat 02:21:48 PM 36.1889 -119.7075 159° South 433 498 39,000  Level Oakland Center
Sat 02:22:49 PM 36.0744 -119.6578 161° South 434 499 39,000  Level Oakland Center
Sat 02:23:51 PM 35.9592 -119.6161 164° South 434 499 39,000  Level Oakland Center
Sat 02:24:52 PM 35.8422 -119.6211 182° South 421 484 39,000  Level Oakland Center
Sat 02:25:54 PM 35.7258 -119.6256 182° South 419 482 39,000  Level Oakland Center
Sat 02:26:55 PM 35.5850 -119.6311 182° South 421 484 39,000  Level Los Angeles Center
Sat 02:27:57 PM 35.4672 -119.6344 181° South 421 484 39,000  Level Los Angeles Center
Sat 02:28:59 PM 35.3500 -119.6383 182° South 420 483 39,000  Level Los Angeles Center
Sat 02:30:02 PM 35.2336 -119.6194 172° South 429 494 39,000  Level Los Angeles Center
Sat 02:31:04 PM 35.1331 -119.5356 146° Southeast 438 504 39,000 -968 Level Los Angeles Center
Sat 02:32:06 PM 35.0342 -119.4506 145° Southeast 438 504 37,000 -2,131 Descending Los Angeles Center
Sat 02:34:07 PM 34.8375 -119.2853 145° Southeast 432 497 32,500 -2,194 Descending Oakland Center
Sat 02:35:12 PM 34.7239 -119.1878 145° Southeast 418 481 30,200 -1,937 Descending Los Angeles Center
Sat 02:36:14 PM 34.6308 -119.1108 146° Southeast 413 475 28,400 -1,790 Descending Los Angeles Center
Sat 02:37:16 PM 34.5381 -119.0344 146° Southeast 407 468 26,500 -1,776 Descending Los Angeles Center
Sat 02:38:19 PM 34.4489 -118.9600 145° Southeast 393 452 24,700 -1,872 Descending Los Angeles Center
Sat 02:39:21 PM 34.3450 -118.8783 147° Southeast 364 419 22,600 -1,887 Descending Los Angeles Center
Sat 02:40:23 PM 34.2508 -118.8428 163° South 353 406 20,800 -1,694 Descending Los Angeles Center
Sat 02:41:25 PM 34.1592 -118.8081 163° South 348 400 19,100 -1,694 Descending Los Angeles Center
Sat 02:42:27 PM 34.0633 -118.7725 163° South 335 386 17,300 -1,742 Descending Los Angeles Center
Sat 02:43:29 PM 33.9758 -118.7419 164° South 327 376 15,500 -1,597 Descending Los Angeles Center
Sat 02:44:31 PM 33.8836 -118.7069 163° South 325 374 14,000 -726 Descending Los Angeles Center
Sat 02:45:33 PM 33.7953 -118.6756 164° South 324 373 14,000 -336 Level Los Angeles Center
Sat 02:46:36 PM 33.7094 -118.6453 164° South 325 374 13,300 -816 Descending Los Angeles Center
Sat 02:47:38 PM 33.6261 -118.6164 164° South 318 366 12,300 -1,065 Descending Los Angeles Center
Sat 02:48:40 PM 33.5517 -118.5678 151° Southeast 312 359 11,100 -1,403 Descending Los Angeles Center
Sat 02:49:42 PM 33.4833 -118.4878 136° Southeast 306 352 9,400 -1,500 Descending Los Angeles Center
Sat 02:50:44 PM 33.4647 -118.3919 103° East 300 345 8,000 -1,403 Descending Los Angeles Center
Sat 02:51:46 PM 33.4472 -118.2975 102° East 298 343 6,500 -1,258 Descending Los Angeles Center
Sat 02:52:48 PM 33.4847 -118.2186 60° Northeast 290 334 5,400 -726 Descending Los Angeles Center
Sat 02:53:50 PM 33.5467 -118.1369 48° Northeast 282 325 5,000 -192 Descending Los Angeles Center
Sat 02:54:53 PM 33.5964 -118.0819 43° Northeast 258 297 5,000  Level Los Angeles Center
Sat 02:55:55 PM 33.6439 -118.0278 44° Northeast 242 278 5,000  Level Los Angeles Center
Sat 02:56:49 PM 33.6833 -117.9833 43° Northeast 234 269 5,000 -53 Level Southern California TRACON
Sat 02:57:49 PM 33.7333 -117.9167 48° Northeast 228 262 4,900 -800 Descending Southern California TRACON
Sat 02:58:49 PM 33.7667 -117.8667 51° Northeast 195 224 3,400 -1,438 Descending Southern California TRACON
Sat 02:59:50 PM 33.7500 -117.8167 112° Southeast 185 213 2,000 -1,289 Descending Southern California TRACON
Sat 03:00:50 PM 33.7167 -117.8500 220° Southwest 118 136 800 -893 Descending Southern California TRACON
Sat 03:01:51 PM 33.6833 -117.8667 203° Southwest 123 142 200 -590 Descending Southern California TRACON
Sat 03:04:00 PM 33.6757 -117.8682 207° Southwest  Level Estimated

Login

Don't have an account? Register now (free) for customized features, flight alerts, and more!